createdAt,value
2019-03-01T00:01:53.479Z,5.23
2019-03-01T00:04:36.263Z,8.43
2019-03-01T00:07:31.630Z,8.73
2019-03-01T00:10:32.171Z,8.28
2019-03-01T00:13:19.484Z,7.03
2019-03-01T00:15:58.808Z,8.50
2019-03-01T00:18:40.592Z,7.20
2019-03-01T00:21:13.499Z,7.40
2019-03-01T00:23:55.259Z,8.87
2019-03-01T00:26:30.950Z,6.37
2019-03-01T00:29:07.104Z,8.30
2019-03-01T00:31:45.974Z,7.37
2019-03-01T00:34:21.566Z,9.60
2019-03-01T00:37:14.363Z,6.30
2019-03-01T00:39:50.207Z,7.17
2019-03-01T00:42:41.291Z,7.27
2019-03-01T00:45:10.953Z,6.87
2019-03-01T00:47:40.600Z,6.97
2019-03-01T00:50:10.254Z,6.57
2019-03-01T00:52:39.906Z,5.67
2019-03-01T00:55:09.560Z,6.77
2019-03-01T00:57:39.222Z,6.57
2019-03-01T01:00:16.132Z,6.07
2019-03-01T01:02:45.783Z,9.83
2019-03-01T01:05:15.439Z,6.93
2019-03-01T01:07:45.747Z,6.35
2019-03-01T01:10:15.499Z,8.47
2019-03-01T01:12:45.155Z,6.83
2019-03-01T01:15:15.367Z,8.50
2019-03-01T01:17:45.020Z,9.13
2019-03-01T01:20:14.680Z,7.57
2019-03-01T01:22:44.328Z,8.80
2019-03-01T01:25:13.984Z,7.13
2019-03-01T01:27:43.656Z,6.70
2019-03-01T01:30:14.367Z,6.83
2019-03-01T01:32:44.072Z,7.90
2019-03-01T01:35:13.729Z,7.30
2019-03-01T01:37:43.394Z,8.47
2019-03-01T01:40:13.371Z,8.63
2019-03-01T01:42:43.028Z,6.78
2019-03-01T01:45:12.682Z,5.03
2019-03-01T01:47:42.332Z,8.47
2019-03-01T01:50:11.989Z,5.53
2019-03-01T01:52:41.721Z,8.10
2019-03-01T01:55:11.385Z,7.30
2019-03-01T01:57:41.018Z,10.50
2019-03-01T02:00:14.071Z,8.10
2019-03-01T02:02:43.791Z,8.57
2019-03-01T02:05:13.629Z,7.63
2019-03-01T02:07:43.352Z,6.70
2019-03-01T02:10:13.004Z,8.63
2019-03-01T02:12:42.660Z,10.33
2019-03-01T02:15:14.168Z,8.13
2019-03-01T02:17:43.811Z,6.60
2019-03-01T02:20:13.467Z,7.63
2019-03-01T02:22:44.284Z,8.03
2019-03-01T02:25:14.128Z,8.10
2019-03-01T02:27:43.784Z,6.77
2019-03-01T02:30:19.529Z,6.23
2019-03-01T02:32:49.187Z,7.73
2019-03-01T02:35:19.675Z,8.70
2019-03-01T02:37:49.327Z,6.60
2019-03-01T02:40:19.970Z,6.60
2019-03-01T02:42:49.615Z,5.93
2019-03-01T02:45:21.137Z,8.57
2019-03-01T02:47:50.785Z,7.63
2019-03-01T02:50:21.211Z,8.30
2019-03-01T02:52:50.853Z,6.87
2019-03-01T02:55:21.515Z,6.97
2019-03-01T02:57:51.168Z,8.67
2019-03-01T03:00:28.924Z,7.30
2019-03-01T03:02:59.842Z,7.77
2019-03-01T03:05:29.576Z,6.73
2019-03-01T03:08:03.865Z,6.43
2019-03-01T03:10:33.532Z,7.80
2019-03-01T03:13:05.692Z,6.87
2019-03-01T03:15:45.825Z,8.63
2019-03-01T03:18:15.487Z,6.60
2019-03-01T03:20:45.135Z,7.50
2019-03-01T03:23:14.779Z,7.13
2019-03-01T03:25:44.437Z,8.63
2019-03-01T03:28:14.092Z,7.73
2019-03-01T03:30:43.754Z,9.20
2019-03-01T03:33:13.402Z,5.87
2019-03-01T03:35:43.596Z,7.90
2019-03-01T03:38:13.252Z,6.07
2019-03-01T03:40:42.904Z,7.93
2019-03-01T03:43:12.668Z,6.77
2019-03-01T03:45:42.369Z,10.20
2019-03-01T03:48:12.120Z,6.40
2019-03-01T03:50:41.770Z,9.23
2019-03-01T03:53:11.428Z,11.27
2019-03-01T03:55:41.073Z,6.97
2019-03-01T03:58:10.729Z,9.27
2019-03-01T04:00:40.393Z,8.13
2019-03-01T04:03:10.113Z,6.93
2019-03-01T04:05:39.771Z,9.73
2019-03-01T04:08:09.454Z,7.90
2019-03-01T04:10:40.268Z,7.03
2019-03-01T04:13:09.932Z,6.67
2019-03-01T04:15:39.657Z,6.43
2019-03-01T04:18:09.308Z,8.13
2019-03-01T04:20:38.960Z,7.17
2019-03-01T04:23:08.681Z,7.43
2019-03-01T04:25:38.337Z,7.00
2019-03-01T04:28:08.364Z,7.20
2019-03-01T04:30:38.008Z,7.77
2019-03-01T04:33:07.660Z,6.80
2019-03-01T04:35:37.388Z,7.80
2019-03-01T04:38:07.040Z,6.97
2019-03-01T04:40:36.715Z,7.10
2019-03-01T04:43:06.440Z,7.90
2019-03-01T04:45:36.138Z,7.27
2019-03-01T04:48:05.811Z,6.90
2019-03-01T04:50:35.468Z,6.30
2019-03-01T04:53:05.187Z,7.50
2019-03-01T04:55:34.916Z,7.83
2019-03-01T04:58:04.634Z,9.43
2019-03-01T05:00:34.301Z,6.30
2019-03-01T05:03:03.944Z,6.60
2019-03-01T05:05:33.598Z,6.77
2019-03-01T05:08:03.245Z,8.63
2019-03-01T05:10:32.966Z,6.97
2019-03-01T05:13:02.641Z,6.40
2019-03-01T05:15:32.283Z,7.00
2019-03-01T05:18:01.952Z,5.50
2019-03-01T05:20:31.589Z,6.10
2019-03-01T05:23:01.243Z,9.77
2019-03-01T05:25:30.968Z,8.07
2019-03-01T05:28:00.615Z,6.37
2019-03-01T05:30:30.525Z,9.03
2019-03-01T05:33:00.182Z,6.33
2019-03-01T05:35:29.840Z,8.27
2019-03-01T05:37:59.497Z,8.27
2019-03-01T05:40:29.156Z,7.33
2019-03-01T05:42:58.898Z,9.00
2019-03-01T05:45:31.617Z,7.03
2019-03-01T05:48:01.269Z,9.70
2019-03-01T05:50:32.092Z,7.77
2019-03-01T05:53:01.748Z,6.47
2019-03-01T05:55:31.400Z,7.37
2019-03-01T05:58:20.838Z,6.97
2019-03-01T06:00:51.991Z,6.90
2019-03-01T06:03:50.520Z,7.20
2019-03-01T06:06:35.436Z,4.97
2019-03-01T06:09:20.391Z,8.90
2019-03-01T06:12:05.346Z,6.10
2019-03-01T06:14:47.087Z,5.13
2019-03-01T06:17:39.304Z,6.50
2019-03-01T06:20:30.220Z,5.60
2019-03-01T06:23:11.936Z,3.93
2019-03-01T06:25:47.433Z,5.87
2019-03-01T06:28:36.987Z,5.40
2019-03-01T06:31:32.552Z,5.57
2019-03-01T06:34:24.886Z,7.60
2019-03-01T06:37:00.419Z,6.80
2019-03-01T06:39:49.503Z,5.90
2019-03-01T06:42:31.116Z,5.93
2019-03-01T06:45:16.112Z,7.07
2019-03-01T06:47:48.771Z,5.57
2019-03-01T06:50:23.004Z,4.80
2019-03-01T06:52:52.655Z,7.13
2019-03-01T06:55:36.950Z,5.17
2019-03-01T06:58:09.344Z,4.37
2019-03-01T07:00:49.805Z,5.47
2019-03-01T07:03:13.175Z,5.80
2019-03-01T07:05:43.395Z,6.15
2019-03-01T07:08:13.044Z,5.50
2019-03-01T07:10:42.698Z,6.25
2019-03-01T07:13:12.343Z,5.33
2019-03-01T07:15:42.447Z,5.47
2019-03-01T07:18:12.146Z,4.97
2019-03-01T07:20:42.391Z,5.75
2019-03-01T07:23:12.617Z,6.90
2019-03-01T07:25:42.828Z,7.90
2019-03-01T07:28:13.107Z,6.03
2019-03-01T07:30:42.764Z,5.87
2019-03-01T07:33:13.687Z,6.45
2019-03-01T07:35:43.338Z,7.00
2019-03-01T07:38:12.996Z,9.50
2019-03-01T07:40:42.656Z,8.30
2019-03-01T07:43:12.921Z,5.60
2019-03-01T07:45:42.601Z,6.70
2019-03-01T07:48:12.807Z,6.90
2019-03-01T07:50:42.467Z,7.40
2019-03-01T07:53:12.395Z,9.07
2019-03-01T07:55:44.028Z,6.00
2019-03-01T07:58:13.828Z,7.33
2019-03-01T08:00:46.766Z,6.13
2019-03-01T08:03:15.881Z,10.28
2019-03-01T08:05:46.220Z,7.15
2019-03-01T08:08:16.434Z,5.55
2019-03-01T08:10:46.668Z,8.83
2019-03-01T08:13:17.556Z,11.35
2019-03-01T08:15:48.779Z,12.23
2019-03-01T08:18:18.505Z,15.93
2019-03-01T08:20:48.167Z,19.83
2019-03-01T08:23:18.993Z,19.03
2019-03-01T08:25:48.652Z,11.10
2019-03-01T08:28:18.547Z,13.63
2019-03-01T08:30:50.227Z,9.80
2019-03-01T08:33:19.872Z,8.73
2019-03-01T08:35:49.526Z,10.17
2019-03-01T08:38:19.180Z,8.48
2019-03-01T08:40:49.895Z,8.83
2019-03-01T08:43:20.188Z,7.77
2019-03-01T08:45:50.412Z,11.00
2019-03-01T08:48:20.076Z,13.30
2019-03-01T08:50:49.735Z,9.38
2019-03-01T08:53:20.023Z,10.88
2019-03-01T08:55:52.115Z,7.12
2019-03-01T08:58:22.236Z,8.15
2019-03-01T09:00:59.276Z,8.23
2019-03-01T09:03:30.251Z,8.23
2019-03-01T09:06:00.542Z,9.13
2019-03-01T09:08:30.753Z,9.43
2019-03-01T09:11:05.434Z,7.42
2019-03-01T09:13:36.061Z,7.85
2019-03-01T09:16:06.142Z,9.65
2019-03-01T09:18:36.357Z,9.20
2019-03-01T09:21:12.525Z,8.20
2019-03-01T09:23:39.633Z,9.55
2019-03-01T09:26:10.185Z,9.70
2019-03-01T09:28:40.404Z,8.35
2019-03-01T09:31:10.607Z,9.00
2019-03-01T09:33:40.820Z,7.35
2019-03-01T09:36:18.099Z,8.80
2019-03-01T09:38:47.443Z,13.15
2019-03-01T09:41:17.713Z,8.80
2019-03-01T09:43:48.023Z,12.23
2019-03-01T09:46:20.821Z,12.10
2019-03-01T09:48:50.497Z,8.18
2019-03-01T09:51:22.088Z,9.53
2019-03-01T09:53:52.384Z,11.50
2019-03-01T09:56:24.411Z,9.10
2019-03-01T09:58:54.950Z,9.58
2019-03-01T10:01:25.165Z,9.45
2019-03-01T10:03:56.270Z,10.48
2019-03-01T10:06:26.751Z,9.48
2019-03-01T10:08:56.970Z,7.08
2019-03-01T10:11:27.188Z,9.25
2019-03-01T10:13:57.468Z,8.33
2019-03-01T10:16:27.720Z,11.03
2019-03-01T10:18:58.203Z,7.22
2019-03-01T10:21:28.427Z,9.33
2019-03-01T10:23:58.640Z,7.42
2019-03-01T10:26:30.161Z,10.40
2019-03-01T10:29:00.382Z,7.83
2019-03-01T10:31:30.598Z,7.85
2019-03-01T10:34:00.820Z,11.53
2019-03-01T10:36:31.343Z,7.15
2019-03-01T10:39:01.555Z,7.78
2019-03-01T10:41:33.378Z,7.83
2019-03-01T10:44:03.592Z,6.70
2019-03-01T10:46:33.880Z,7.17
2019-03-01T10:49:04.108Z,10.98
2019-03-01T10:51:34.331Z,11.10
2019-03-01T10:54:04.555Z,8.25
2019-03-01T10:56:34.812Z,7.92
2019-03-01T10:59:05.023Z,9.83
2019-03-01T11:01:35.239Z,8.03
2019-03-01T11:04:05.453Z,9.48
2019-03-01T11:06:36.855Z,15.28
2019-03-01T11:09:07.455Z,14.15
2019-03-01T11:11:38.284Z,17.20
2019-03-01T11:14:08.513Z,10.40
2019-03-01T11:16:38.781Z,11.30
2019-03-01T11:19:08.493Z,9.97
2019-03-01T11:21:38.144Z,9.20
2019-03-01T11:24:08.444Z,10.23
2019-03-01T11:26:38.096Z,7.97
2019-03-01T11:29:08.325Z,10.85
2019-03-01T11:31:38.539Z,8.10
2019-03-01T11:34:08.756Z,7.78
2019-03-01T11:36:38.975Z,8.95
2019-03-01T11:39:10.532Z,8.88
2019-03-01T11:41:40.186Z,7.53
2019-03-01T11:44:10.559Z,8.88
2019-03-01T11:46:41.043Z,8.65
2019-03-01T11:49:11.291Z,8.43
2019-03-01T11:51:41.503Z,7.78
2019-03-01T11:54:11.797Z,9.78
2019-03-01T11:56:42.011Z,7.05
2019-03-01T11:59:12.416Z,8.90
2019-03-01T12:01:42.808Z,7.08
2019-03-01T12:04:13.314Z,8.93
2019-03-01T12:06:44.801Z,7.03
2019-03-01T12:09:15.080Z,8.53
2019-03-01T12:11:45.375Z,8.60
2019-03-01T12:14:15.656Z,7.87
2019-03-01T12:16:45.886Z,9.55
2019-03-01T12:19:16.169Z,7.97
2019-03-01T12:21:46.388Z,8.05
2019-03-01T12:24:16.608Z,9.23
2019-03-01T12:26:46.827Z,9.28
2019-03-01T12:29:17.048Z,7.08
2019-03-01T12:31:48.440Z,8.28
2019-03-01T12:34:18.656Z,7.12
2019-03-01T12:36:48.887Z,8.75
2019-03-01T12:39:19.121Z,10.30
2019-03-01T12:41:49.048Z,8.60
2019-03-01T12:44:19.328Z,10.08
2019-03-01T12:46:49.808Z,8.08
2019-03-01T12:49:20.104Z,11.63
2019-03-01T12:51:50.329Z,7.53
2019-03-01T12:54:20.159Z,6.87
2019-03-01T12:56:50.388Z,7.78
2019-03-01T12:59:20.604Z,8.23
2019-03-01T13:01:51.272Z,8.80
2019-03-01T13:04:21.481Z,7.42
2019-03-01T13:06:51.607Z,6.30
2019-03-01T13:09:23.523Z,6.20
2019-03-01T13:11:54.148Z,7.90
2019-03-01T13:14:24.368Z,6.78
2019-03-01T13:16:54.588Z,9.35
2019-03-01T13:19:26.123Z,6.65
2019-03-01T13:21:57.864Z,6.72
2019-03-01T13:24:28.091Z,10.03
2019-03-01T13:26:58.304Z,5.25
2019-03-01T13:29:28.523Z,10.10
2019-03-01T13:31:58.820Z,6.70
2019-03-01T13:34:29.066Z,7.70
2019-03-01T13:36:59.327Z,6.10
2019-03-01T13:39:29.570Z,6.85
2019-03-01T13:41:59.858Z,6.62
2019-03-01T13:44:30.061Z,7.17
2019-03-01T13:47:00.474Z,5.75
2019-03-01T13:49:31.411Z,6.33
2019-03-01T13:52:01.842Z,5.10
2019-03-01T13:54:32.127Z,7.20
2019-03-01T13:57:03.535Z,13.32
2019-03-01T13:59:33.833Z,6.75
2019-03-01T14:02:07.477Z,7.83
2019-03-01T14:04:40.270Z,6.35
2019-03-01T14:07:09.987Z,6.25
2019-03-01T14:09:40.280Z,8.45
2019-03-01T14:12:10.488Z,5.08
2019-03-01T14:14:40.704Z,7.10
2019-03-01T14:17:10.915Z,6.28
2019-03-01T14:19:42.304Z,5.92
2019-03-01T14:22:14.023Z,5.70
2019-03-01T14:24:44.429Z,5.60
2019-03-01T14:27:14.655Z,6.58
2019-03-01T14:29:44.868Z,6.45
2019-03-01T14:32:20.713Z,7.12
2019-03-01T14:34:48.588Z,5.12
2019-03-01T14:37:19.417Z,6.50
2019-03-01T14:39:50.952Z,5.62
2019-03-01T14:42:21.164Z,5.30
2019-03-01T14:44:51.375Z,7.10
2019-03-01T14:47:21.589Z,4.65
2019-03-01T14:49:53.936Z,6.28
2019-03-01T14:52:24.008Z,6.42
2019-03-01T14:54:54.228Z,6.95
2019-03-01T14:57:26.179Z,6.50
2019-03-01T14:59:59.605Z,7.12
2019-03-01T15:02:42.016Z,6.75
2019-03-01T15:05:17.847Z,5.10
2019-03-01T15:07:44.287Z,5.92
2019-03-01T15:10:14.501Z,4.75
2019-03-01T15:12:44.724Z,7.12
2019-03-01T15:15:15.036Z,9.25
2019-03-01T15:17:45.311Z,5.60
2019-03-01T15:20:17.216Z,5.25
2019-03-01T15:22:48.711Z,7.92
2019-03-01T15:25:19.893Z,8.83
2019-03-01T15:27:50.108Z,6.62
2019-03-01T15:30:20.324Z,8.83
2019-03-01T15:32:52.453Z,6.92
2019-03-01T15:35:22.532Z,10.08
2019-03-01T15:37:53.016Z,12.75
2019-03-01T15:40:23.620Z,12.55
2019-03-01T15:42:55.487Z,10.00
2019-03-01T15:45:25.692Z,8.87
2019-03-01T15:47:58.796Z,19.87
2019-03-01T15:50:28.226Z,10.83
2019-03-01T15:52:58.789Z,14.20
2019-03-01T15:55:29.690Z,8.13
2019-03-01T15:58:00.095Z,11.35
2019-03-01T16:00:30.558Z,9.20
2019-03-01T16:03:01.117Z,11.08
2019-03-01T16:05:34.236Z,13.03
2019-03-01T16:08:05.527Z,12.70
2019-03-01T16:10:36.039Z,10.65
2019-03-01T16:13:08.462Z,8.70
2019-03-01T16:15:39.832Z,11.08
2019-03-01T16:18:10.221Z,9.25
2019-03-01T16:20:40.420Z,8.90
2019-03-01T16:23:10.643Z,11.10
2019-03-01T16:25:40.860Z,8.75
2019-03-01T16:28:11.080Z,7.95
2019-03-01T16:30:41.300Z,8.53
2019-03-01T16:33:11.576Z,7.42
2019-03-01T16:35:41.807Z,10.23
2019-03-01T16:38:12.114Z,9.65
2019-03-01T16:40:42.404Z,9.90
2019-03-01T16:43:12.619Z,7.10
2019-03-01T16:45:42.844Z,10.53
2019-03-01T16:48:13.579Z,15.10
2019-03-01T16:50:45.064Z,9.85
2019-03-01T16:53:15.551Z,9.23
2019-03-01T16:55:45.208Z,11.17
2019-03-01T16:58:14.936Z,12.95
2019-03-01T17:00:44.596Z,10.37
2019-03-01T17:03:17.989Z,9.18
2019-03-01T17:05:47.976Z,10.03
2019-03-01T17:08:17.647Z,9.98
2019-03-01T17:10:47.982Z,12.30
2019-03-01T17:13:18.203Z,7.83
2019-03-01T17:15:49.260Z,10.28
2019-03-01T17:18:19.908Z,10.63
2019-03-01T17:20:50.012Z,12.53
2019-03-01T17:23:20.240Z,9.15
2019-03-01T17:25:50.447Z,9.58
2019-03-01T17:28:23.622Z,11.12
2019-03-01T17:30:52.597Z,8.90
2019-03-01T17:33:23.108Z,11.38
2019-03-01T17:35:53.338Z,10.98
2019-03-01T17:38:24.587Z,10.48
2019-03-01T17:40:54.819Z,10.85
2019-03-01T17:43:25.989Z,8.88
2019-03-01T17:45:57.768Z,8.57
2019-03-01T17:48:29.605Z,10.75
2019-03-01T17:50:59.463Z,10.00
2019-03-01T17:53:29.675Z,8.63
2019-03-01T17:55:59.324Z,8.07
2019-03-01T17:58:29.649Z,10.98
2019-03-01T18:01:02.939Z,10.35
2019-03-01T18:03:31.948Z,12.37
2019-03-01T18:06:02.171Z,11.88
2019-03-01T18:08:35.857Z,11.40
2019-03-01T18:11:05.417Z,11.70
2019-03-01T18:13:37.084Z,7.22
2019-03-01T18:16:06.799Z,9.60
2019-03-01T18:18:37.092Z,9.88
2019-03-01T18:21:10.095Z,7.55
2019-03-01T18:23:40.428Z,10.43
2019-03-01T18:26:11.068Z,9.45
2019-03-01T18:28:41.283Z,8.93
2019-03-01T18:31:11.561Z,6.17
2019-03-01T18:33:42.734Z,7.75
2019-03-01T18:36:13.169Z,9.28
2019-03-01T18:38:43.456Z,10.35
2019-03-01T18:41:13.740Z,6.40
2019-03-01T18:43:45.768Z,8.68
2019-03-01T18:46:19.178Z,10.95
2019-03-01T18:48:47.564Z,10.18
2019-03-01T18:51:17.784Z,7.80
2019-03-01T18:53:47.996Z,6.28
2019-03-01T18:56:19.384Z,9.43
2019-03-01T18:58:49.822Z,9.40
2019-03-01T19:01:20.337Z,8.08
2019-03-01T19:03:50.333Z,11.07
2019-03-01T19:06:20.563Z,11.55
2019-03-01T19:08:51.159Z,7.60
2019-03-01T19:11:20.883Z,10.30
2019-03-01T19:13:51.128Z,12.10
2019-03-01T19:16:21.348Z,6.22
2019-03-01T19:18:53.090Z,9.35
2019-03-01T19:21:23.290Z,9.00
2019-03-01T19:23:53.271Z,8.93
2019-03-01T19:26:23.520Z,12.55
2019-03-01T19:28:53.759Z,11.57
2019-03-01T19:31:24.532Z,8.78
2019-03-01T19:33:55.676Z,9.68
2019-03-01T19:36:25.889Z,8.93
2019-03-01T19:38:56.806Z,9.05
2019-03-01T19:41:29.027Z,11.73
2019-03-01T19:43:59.288Z,10.68
2019-03-01T19:46:29.588Z,16.77
2019-03-01T19:48:59.891Z,13.50
2019-03-01T19:51:30.220Z,19.15
2019-03-01T19:54:01.219Z,17.25
2019-03-01T19:56:33.915Z,14.05
2019-03-01T19:59:04.160Z,18.92
2019-03-01T20:01:35.666Z,16.77
2019-03-01T20:04:05.904Z,16.32
2019-03-01T20:06:36.207Z,17.42
2019-03-01T20:09:08.429Z,17.77
2019-03-01T20:11:39.530Z,18.57
2019-03-01T20:14:09.766Z,17.90
2019-03-01T20:16:40.008Z,20.02
2019-03-01T20:19:10.247Z,18.67
2019-03-01T20:21:41.409Z,18.67
2019-03-01T20:24:12.424Z,17.70
2019-03-01T20:26:42.655Z,14.95
2019-03-01T20:29:12.969Z,17.70
2019-03-01T20:31:43.197Z,17.87
2019-03-01T20:34:13.436Z,19.57
2019-03-01T20:36:43.680Z,16.60
2019-03-01T20:39:15.575Z,18.07
2019-03-01T20:41:46.624Z,15.72
2019-03-01T20:44:18.686Z,19.00
2019-03-01T20:46:48.488Z,16.27
2019-03-01T20:49:18.230Z,15.03
2019-03-01T20:51:49.744Z,14.65
2019-03-01T20:54:21.941Z,15.98
2019-03-01T20:56:52.718Z,13.13
2019-03-01T20:59:23.287Z,16.40
2019-03-01T21:01:53.538Z,15.65
2019-03-01T21:04:24.846Z,15.20
2019-03-01T21:06:55.087Z,14.20
2019-03-01T21:09:25.348Z,13.97
2019-03-01T21:11:57.775Z,14.00
2019-03-01T21:14:27.860Z,14.78
2019-03-01T21:16:57.716Z,15.15
2019-03-01T21:19:27.955Z,14.95
2019-03-01T21:21:57.624Z,12.37
2019-03-01T21:24:27.764Z,13.13
2019-03-01T21:26:57.622Z,13.20
2019-03-01T21:29:27.860Z,13.55
2019-03-01T21:31:58.096Z,15.80
2019-03-01T21:34:28.327Z,9.10
2019-03-01T21:36:59.103Z,13.17
2019-03-01T21:39:29.943Z,18.30
2019-03-01T21:42:00.185Z,12.90
2019-03-01T21:44:29.916Z,13.55
2019-03-01T21:47:01.425Z,12.90
2019-03-01T21:49:31.082Z,12.03
2019-03-01T21:52:00.740Z,11.27
2019-03-01T21:54:30.427Z,10.23
2019-03-01T21:57:00.089Z,12.40
2019-03-01T21:59:29.753Z,10.97
2019-03-01T22:01:59.416Z,11.07
2019-03-01T22:04:29.196Z,12.97
2019-03-01T22:07:01.868Z,9.40
2019-03-01T22:09:30.225Z,11.75
2019-03-01T22:11:59.879Z,11.47
2019-03-01T22:14:29.536Z,11.97
2019-03-01T22:17:00.947Z,10.53
2019-03-01T22:19:33.670Z,8.73
2019-03-01T22:22:02.577Z,9.67
2019-03-01T22:24:34.198Z,11.37
2019-03-01T22:27:04.227Z,10.00
2019-03-01T22:29:33.939Z,9.13
2019-03-01T22:32:03.598Z,8.80
2019-03-01T22:34:33.255Z,9.23
2019-03-01T22:37:02.900Z,7.63
2019-03-01T22:39:32.585Z,13.22
2019-03-01T22:42:02.241Z,9.17
2019-03-01T22:44:33.310Z,7.03
2019-03-01T22:47:03.240Z,8.90
2019-03-01T22:49:32.891Z,10.10
2019-03-01T22:52:02.554Z,10.87
2019-03-01T22:54:32.207Z,8.00
2019-03-01T22:57:02.426Z,8.35
2019-03-01T22:59:32.085Z,8.80
2019-03-01T23:02:04.435Z,8.50
2019-03-01T23:04:34.475Z,7.43
2019-03-01T23:07:04.131Z,8.63
2019-03-01T23:09:34.057Z,8.97
2019-03-01T23:12:04.724Z,8.43
2019-03-01T23:14:35.071Z,7.33
2019-03-01T23:17:04.779Z,8.03
2019-03-01T23:19:34.606Z,6.73
2019-03-01T23:22:07.690Z,8.40
2019-03-01T23:24:36.183Z,6.70
2019-03-01T23:27:05.836Z,9.47
2019-03-01T23:29:35.564Z,9.43
2019-03-01T23:32:05.275Z,8.20
2019-03-01T23:34:34.932Z,8.17
2019-03-01T23:37:04.664Z,6.77
2019-03-01T23:39:34.315Z,7.57
2019-03-01T23:42:04.127Z,6.57
2019-03-01T23:44:33.779Z,9.03
2019-03-01T23:47:03.716Z,7.43
2019-03-01T23:49:33.571Z,7.73
2019-03-01T23:52:03.225Z,7.60
2019-03-01T23:54:32.876Z,7.90
2019-03-01T23:57:05.722Z,7.70
2019-03-01T23:59:33.975Z,7.03
